createdAt,value
2018-04-25T00:00:04.569Z,25.30
2018-04-25T00:01:04.568Z,24.80
2018-04-25T00:02:04.566Z,25.60
2018-04-25T00:03:04.564Z,25.60
2018-04-25T00:04:04.564Z,24.50
2018-04-25T00:05:04.561Z,25.70
2018-04-25T00:06:04.563Z,26.50
2018-04-25T00:07:04.561Z,27.10
2018-04-25T00:08:04.561Z,26.30
2018-04-25T00:09:04.557Z,26.40
2018-04-25T00:10:04.556Z,26.40
2018-04-25T00:11:04.556Z,26.30
2018-04-25T00:12:04.554Z,26.50
2018-04-25T00:13:04.553Z,27.40
2018-04-25T00:14:04.551Z,26.80
2018-04-25T00:15:04.551Z,26.80
2018-04-25T00:16:04.563Z,29.10
2018-04-25T00:17:04.548Z,28.70
2018-04-25T00:18:04.547Z,28.00
2018-04-25T00:19:04.545Z,27.90
2018-04-25T00:20:04.549Z,29.80
2018-04-25T00:21:04.541Z,28.10
2018-04-25T00:22:04.540Z,28.00
2018-04-25T00:23:04.542Z,31.10
2018-04-25T00:24:04.541Z,28.80
2018-04-25T00:25:04.550Z,29.50
2018-04-25T00:26:04.536Z,29.90
2018-04-25T00:27:04.536Z,30.30
2018-04-25T00:28:04.533Z,32.10
2018-04-25T00:29:04.533Z,32.10
2018-04-25T00:30:04.533Z,31.30
2018-04-25T00:31:04.531Z,32.40
2018-04-25T00:32:04.531Z,32.50
2018-04-25T00:33:04.527Z,32.10
2018-04-25T00:34:04.524Z,32.70
2018-04-25T00:35:04.523Z,33.90
2018-04-25T00:36:04.523Z,32.60
2018-04-25T00:37:04.528Z,31.90
2018-04-25T00:38:04.519Z,32.80
2018-04-25T00:39:04.520Z,32.60
2018-04-25T00:40:04.523Z,32.60
2018-04-25T00:41:04.524Z,32.90
2018-04-25T00:42:04.515Z,32.00
2018-04-25T00:43:04.516Z,32.30
2018-04-25T00:44:04.512Z,33.80
2018-04-25T00:45:04.512Z,33.00
2018-04-25T00:46:04.574Z,32.20
2018-04-25T00:47:04.511Z,33.90
2018-04-25T00:48:04.506Z,33.00
2018-04-25T00:49:04.506Z,33.70
2018-04-25T00:50:04.504Z,34.90
2018-04-25T00:51:04.503Z,34.70
2018-04-25T00:52:04.503Z,34.40
2018-04-25T00:53:04.499Z,35.20
2018-04-25T00:54:04.502Z,34.40
2018-04-25T00:55:04.496Z,34.30
2018-04-25T00:56:04.497Z,34.30
2018-04-25T00:57:04.500Z,33.60
2018-04-25T00:58:04.495Z,35.20
2018-04-25T00:59:04.493Z,35.70
2018-04-25T01:00:04.490Z,33.90
2018-04-25T01:01:04.489Z,34.50
2018-04-25T01:02:04.489Z,35.10
2018-04-25T01:03:04.487Z,34.10
2018-04-25T01:04:04.490Z,33.10
2018-04-25T01:05:04.483Z,34.90
2018-04-25T01:06:04.482Z,34.80
2018-04-25T01:07:04.481Z,34.30
2018-04-25T01:08:04.535Z,34.20
2018-04-25T01:09:04.478Z,32.80
2018-04-25T01:10:04.477Z,30.90
2018-04-25T01:11:04.480Z,32.90
2018-04-25T01:12:04.477Z,32.70
2018-04-25T01:13:04.474Z,34.40
2018-04-25T01:14:04.470Z,33.30
2018-04-25T01:15:04.469Z,32.10
2018-04-25T01:16:04.469Z,31.20
2018-04-25T01:17:04.467Z,31.30
2018-04-25T01:18:04.468Z,32.10
2018-04-25T01:19:04.468Z,30.90
2018-04-25T01:20:04.463Z,31.80
2018-04-25T01:21:04.463Z,31.00
2018-04-25T01:28:14.919Z,32.80
2018-04-25T01:29:14.895Z,31.70
2018-04-25T01:31:08.298Z,30.40
2018-04-25T01:32:08.291Z,29.30
2018-04-25T01:34:01.710Z,30.10
2018-04-25T01:35:01.688Z,30.30
2018-04-25T01:36:55.095Z,29.50
2018-04-25T01:37:55.084Z,34.40
2018-04-25T01:39:48.502Z,31.60
2018-04-25T01:40:48.482Z,31.60
2018-04-25T01:42:41.980Z,28.90
2018-04-25T01:49:33.704Z,27.80
2018-04-25T01:50:33.681Z,28.80
2018-04-25T01:52:27.071Z,28.80
2018-04-25T01:53:27.066Z,27.70
2018-04-25T01:55:20.485Z,27.50
2018-04-25T01:56:20.462Z,27.40
2018-04-25T01:58:13.977Z,26.90
2018-04-25T01:59:13.972Z,27.00
2018-04-25T02:01:07.381Z,28.90
2018-04-25T02:02:07.359Z,27.70
2018-04-25T02:04:00.749Z,28.10
2018-04-25T02:05:00.747Z,28.80
2018-04-25T02:06:00.745Z,29.60
2018-04-25T02:07:00.742Z,28.70
2018-04-25T02:08:00.739Z,29.70
2018-04-25T02:09:00.739Z,29.50
2018-04-25T02:10:00.738Z,28.80
2018-04-25T02:11:00.734Z,29.30
2018-04-25T02:12:00.742Z,28.90
2018-04-25T02:13:00.732Z,28.70
2018-04-25T02:14:00.732Z,27.90
2018-04-25T02:15:00.733Z,27.80
2018-04-25T02:16:00.728Z,27.20
2018-04-25T02:17:00.728Z,28.50
2018-04-25T02:18:00.724Z,27.80
2018-04-25T02:19:00.727Z,27.70
2018-04-25T02:20:00.724Z,27.60
2018-04-25T02:21:00.719Z,29.30
2018-04-25T02:22:00.721Z,28.60
2018-04-25T02:23:00.718Z,29.50
2018-04-25T02:24:00.724Z,29.80
2018-04-25T02:25:00.713Z,30.10
2018-04-25T02:26:00.714Z,29.40
2018-04-25T02:27:00.711Z,29.90
2018-04-25T02:28:00.711Z,29.00
2018-04-25T02:29:00.713Z,30.40
2018-04-25T02:30:00.711Z,28.80
2018-04-25T02:31:00.702Z,29.10
2018-04-25T02:32:00.704Z,29.40
2018-04-25T02:33:00.704Z,30.60
2018-04-25T02:34:00.701Z,32.10
2018-04-25T02:35:00.699Z,39.20
2018-04-25T02:36:00.702Z,33.20
2018-04-25T02:37:00.697Z,30.50
2018-04-25T02:38:00.698Z,30.80
2018-04-25T02:39:00.694Z,30.10
2018-04-25T02:40:00.691Z,30.50
2018-04-25T02:41:00.695Z,29.10
2018-04-25T02:42:00.692Z,29.20
2018-04-25T02:43:00.686Z,30.10
2018-04-25T02:44:00.685Z,28.90
2018-04-25T02:45:00.684Z,30.20
2018-04-25T02:46:00.683Z,29.80
2018-04-25T02:47:00.680Z,33.00
2018-04-25T02:48:00.679Z,32.30
2018-04-25T02:49:00.680Z,30.30
2018-04-25T02:50:00.679Z,31.00
2018-04-25T02:51:00.673Z,31.40
2018-04-25T02:52:00.674Z,31.60
2018-04-25T02:53:00.670Z,32.30
2018-04-25T02:54:00.670Z,33.10
2018-04-25T02:55:00.672Z,31.20
2018-04-25T02:56:00.669Z,33.00
2018-04-25T02:57:00.664Z,31.30
2018-04-25T02:58:00.665Z,31.10
2018-04-25T02:59:00.749Z,28.80
2018-04-25T03:00:00.663Z,31.60
2018-04-25T03:01:00.662Z,30.50
2018-04-25T03:02:00.659Z,29.30
2018-04-25T03:03:00.655Z,31.50
2018-04-25T03:04:00.657Z,31.70
2018-04-25T03:05:00.671Z,30.20
2018-04-25T03:06:00.650Z,30.10
2018-04-25T03:07:00.646Z,30.10
2018-04-25T03:08:00.649Z,27.80
2018-04-25T03:09:00.646Z,28.60
2018-04-25T03:10:00.644Z,29.70
2018-04-25T03:11:00.642Z,27.20
2018-04-25T03:12:00.639Z,27.00
2018-04-25T03:13:00.638Z,26.60
2018-04-25T03:14:00.640Z,25.90
2018-04-25T03:15:00.634Z,24.80
2018-04-25T03:16:00.633Z,25.70
2018-04-25T03:17:00.631Z,27.10
2018-04-25T03:18:00.631Z,26.60
2018-04-25T03:19:00.627Z,25.60
2018-04-25T03:20:00.627Z,25.00
2018-04-25T03:21:00.627Z,24.20
2018-04-25T03:22:00.627Z,24.50
2018-04-25T03:23:00.621Z,23.60
2018-04-25T03:24:00.620Z,23.70
2018-04-25T03:25:00.617Z,22.80
2018-04-25T03:26:00.616Z,23.50
2018-04-25T03:27:00.615Z,23.00
2018-04-25T03:28:00.614Z,22.80
2018-04-25T03:29:00.618Z,22.60
2018-04-25T03:30:00.612Z,22.70
2018-04-25T03:31:00.611Z,23.80
2018-04-25T03:32:00.610Z,22.20
2018-04-25T03:33:00.607Z,22.40
2018-04-25T03:34:00.609Z,21.80
2018-04-25T03:35:00.601Z,21.90
2018-04-25T03:36:00.606Z,22.00
2018-04-25T03:37:00.600Z,21.40
2018-04-25T03:38:00.598Z,22.20
2018-04-25T03:39:00.608Z,21.30
2018-04-25T03:40:00.597Z,21.50
2018-04-25T03:41:00.618Z,20.80
2018-04-25T03:42:00.593Z,20.80
2018-04-25T03:43:00.590Z,20.80
2018-04-25T03:44:00.590Z,20.90
2018-04-25T03:45:00.588Z,21.00
2018-04-25T03:46:00.585Z,20.90
2018-04-25T03:47:00.588Z,21.40
2018-04-25T03:48:00.583Z,21.50
2018-04-25T03:49:00.583Z,20.80
2018-04-25T03:50:00.581Z,21.30
2018-04-25T03:51:00.576Z,20.90
2018-04-25T03:52:00.578Z,20.30
2018-04-25T03:53:00.574Z,21.00
2018-04-25T03:54:00.574Z,22.40
2018-04-25T03:55:00.576Z,21.90
2018-04-25T03:56:00.571Z,20.70
2018-04-25T03:57:00.573Z,22.10
2018-04-25T03:58:00.569Z,21.50
2018-04-25T03:59:00.626Z,21.10
2018-04-25T04:00:00.563Z,19.50
2018-04-25T04:01:00.561Z,19.90
2018-04-25T04:02:00.565Z,20.50
2018-04-25T04:03:00.557Z,20.50
2018-04-25T04:04:00.561Z,21.30
2018-04-25T04:05:00.612Z,21.40
2018-04-25T04:06:00.553Z,20.00
2018-04-25T04:07:00.555Z,19.90
2018-04-25T04:08:00.555Z,20.10
2018-04-25T04:09:00.550Z,19.80
2018-04-25T04:10:00.550Z,19.00
2018-04-25T04:11:00.546Z,17.90
2018-04-25T04:12:00.546Z,18.40
2018-04-25T04:13:00.632Z,18.80
2018-04-25T04:14:00.542Z,18.80
2018-04-25T04:15:00.539Z,18.30
2018-04-25T04:16:00.539Z,18.00
2018-04-25T04:17:00.537Z,19.10
2018-04-25T04:18:00.534Z,17.20
2018-04-25T04:19:00.534Z,18.00
2018-04-25T04:20:00.536Z,17.50
2018-04-25T04:21:00.531Z,17.40
2018-04-25T04:22:00.529Z,17.80
2018-04-25T04:23:00.527Z,18.10
2018-04-25T04:24:00.521Z,18.00
2018-04-25T04:25:00.525Z,18.20
2018-04-25T04:26:00.526Z,17.60
2018-04-25T04:27:00.575Z,17.20
2018-04-25T04:28:00.523Z,16.40
2018-04-25T04:29:00.521Z,17.00
2018-04-25T04:30:00.521Z,16.20
2018-04-25T04:31:00.514Z,16.80
2018-04-25T04:32:00.513Z,17.10
2018-04-25T04:33:00.513Z,17.20
2018-04-25T04:34:00.509Z,16.50
2018-04-25T04:35:00.508Z,17.70
2018-04-25T04:36:00.505Z,17.20
2018-04-25T04:37:00.503Z,17.30
2018-04-25T04:38:00.504Z,17.30
2018-04-25T04:39:00.500Z,17.00
2018-04-25T04:40:00.497Z,16.90
2018-04-25T04:41:00.498Z,17.40
2018-04-25T04:42:00.572Z,16.90
2018-04-25T04:43:00.495Z,17.70
2018-04-25T04:44:00.492Z,16.60
2018-04-25T04:45:00.491Z,18.30
2018-04-25T04:46:00.490Z,17.80
2018-04-25T04:47:00.490Z,17.00
2018-04-25T04:48:00.486Z,17.40
2018-04-25T04:49:00.483Z,17.90
2018-04-25T04:50:00.490Z,16.90
2018-04-25T04:51:00.481Z,17.80
2018-04-25T04:52:00.477Z,17.20
2018-04-25T04:53:00.485Z,17.00
2018-04-25T04:54:00.476Z,17.10
2018-04-25T04:55:00.475Z,16.40
2018-04-25T04:56:00.478Z,17.00
2018-04-25T04:57:00.471Z,17.00
2018-04-25T04:58:00.471Z,17.30
2018-04-25T04:59:00.473Z,16.90
2018-04-25T05:00:00.467Z,16.50
2018-04-25T05:01:00.465Z,17.50
2018-04-25T05:02:00.464Z,16.20
2018-04-25T05:03:00.462Z,16.60
2018-04-25T05:04:00.460Z,16.80
2018-04-25T05:05:00.458Z,17.10
2018-04-25T05:06:00.461Z,16.90
2018-04-25T05:07:00.457Z,17.50
2018-04-25T05:08:00.460Z,16.70
2018-04-25T05:09:00.453Z,17.50
2018-04-25T05:10:00.453Z,16.90
2018-04-25T05:11:00.450Z,17.10
2018-04-25T05:12:00.449Z,16.10
2018-04-25T05:13:00.524Z,16.90
2018-04-25T05:14:00.445Z,16.10
2018-04-25T05:15:00.442Z,16.20
2018-04-25T05:16:00.444Z,15.50
2018-04-25T05:17:00.442Z,15.50
2018-04-25T05:18:00.441Z,15.00
2018-04-25T05:19:00.440Z,15.40
2018-04-25T05:20:00.436Z,15.80
2018-04-25T05:21:00.435Z,16.60
2018-04-25T05:22:00.433Z,16.60
2018-04-25T05:23:00.436Z,15.80
2018-04-25T05:24:00.433Z,15.70
2018-04-25T05:25:00.429Z,16.40
2018-04-25T05:26:00.429Z,14.80
2018-04-25T05:27:00.427Z,15.10
2018-04-25T05:28:00.428Z,15.10
2018-04-25T05:29:00.425Z,15.10
2018-04-25T05:30:00.421Z,14.60
2018-04-25T05:31:00.419Z,15.80
2018-04-25T05:32:00.469Z,14.80
2018-04-25T05:33:00.417Z,15.40
2018-04-25T05:34:00.417Z,14.40
2018-04-25T05:35:00.413Z,15.00
2018-04-25T05:36:00.418Z,15.10
2018-04-25T05:37:00.418Z,15.10
2018-04-25T05:38:00.407Z,14.70
2018-04-25T05:39:00.410Z,14.60
2018-04-25T05:40:00.407Z,14.90
2018-04-25T05:41:00.409Z,14.30
2018-04-25T05:42:00.407Z,14.90
2018-04-25T05:43:00.402Z,14.70
2018-04-25T05:44:00.401Z,14.90
2018-04-25T05:45:00.400Z,14.60
2018-04-25T05:46:00.408Z,14.20
2018-04-25T05:47:00.401Z,13.70
2018-04-25T05:48:00.396Z,14.50
2018-04-25T05:49:00.397Z,14.20
2018-04-25T05:50:00.394Z,14.90
2018-04-25T05:51:00.398Z,14.30
2018-04-25T05:52:00.390Z,14.00
2018-04-25T05:53:00.397Z,14.50
2018-04-25T05:54:00.388Z,13.60
2018-04-25T05:55:00.416Z,14.00
2018-04-25T05:56:00.387Z,13.50
2018-04-25T05:57:00.386Z,15.10
2018-04-25T05:58:00.472Z,14.00
2018-04-25T05:59:00.397Z,13.70
2018-04-25T06:00:00.378Z,13.60
2018-04-25T06:01:00.380Z,13.50
2018-04-25T06:02:00.375Z,14.20
2018-04-25T06:03:00.377Z,14.10
2018-04-25T06:04:00.371Z,14.10
2018-04-25T06:05:00.374Z,14.40
2018-04-25T06:06:00.373Z,14.40
2018-04-25T06:07:00.370Z,13.30
2018-04-25T06:08:00.380Z,13.50
2018-04-25T06:09:00.369Z,14.50
2018-04-25T06:10:00.366Z,13.90
2018-04-25T06:11:00.367Z,13.80
2018-04-25T06:12:00.364Z,13.60
2018-04-25T06:13:00.370Z,13.20
2018-04-25T06:14:00.362Z,12.90
2018-04-25T06:15:00.362Z,13.30
2018-04-25T06:16:00.359Z,13.20
2018-04-25T06:17:00.359Z,13.80
2018-04-25T06:18:00.363Z,13.70
2018-04-25T06:19:00.363Z,13.60
2018-04-25T06:20:00.373Z,13.70
2018-04-25T06:21:00.358Z,13.10
2018-04-25T06:22:00.355Z,13.10
2018-04-25T06:23:00.355Z,12.80
2018-04-25T06:24:00.352Z,13.30
2018-04-25T06:25:00.357Z,13.20
2018-04-25T06:26:00.351Z,12.90
2018-04-25T06:27:00.352Z,12.30
2018-04-25T06:28:00.347Z,12.40
2018-04-25T06:29:00.347Z,11.90
2018-04-25T06:30:00.350Z,12.40
2018-04-25T06:31:00.346Z,12.20
2018-04-25T06:32:00.346Z,12.10
2018-04-25T06:33:00.344Z,11.90
2018-04-25T06:34:00.375Z,12.00
2018-04-25T06:35:00.341Z,13.00
2018-04-25T06:36:00.343Z,11.70
2018-04-25T06:37:00.340Z,12.10
2018-04-25T06:38:00.345Z,11.30
2018-04-25T06:39:00.340Z,12.00
2018-04-25T06:40:00.338Z,11.80
2018-04-25T06:41:00.344Z,11.30
2018-04-25T06:42:00.335Z,11.40
2018-04-25T06:43:00.335Z,11.50
2018-04-25T06:44:00.332Z,11.90
2018-04-25T06:45:00.409Z,11.70
2018-04-25T06:46:00.334Z,11.60
2018-04-25T06:47:00.343Z,12.00
2018-04-25T06:48:00.332Z,11.70
2018-04-25T06:49:00.333Z,12.00
2018-04-25T06:50:00.329Z,12.00
2018-04-25T06:51:00.331Z,11.20
2018-04-25T06:52:00.329Z,11.10
2018-04-25T06:53:00.323Z,10.50
2018-04-25T06:54:00.323Z,11.20
2018-04-25T06:55:00.326Z,11.00
2018-04-25T06:56:00.325Z,10.80
2018-04-25T06:57:00.320Z,10.50
2018-04-25T06:58:00.321Z,10.60
2018-04-25T06:59:00.319Z,10.40
2018-04-25T07:00:00.330Z,10.00
2018-04-25T07:01:00.316Z,10.80
2018-04-25T07:02:00.317Z,10.30
2018-04-25T07:03:00.324Z,10.40
2018-04-25T07:04:00.314Z,9.80
2018-04-25T07:05:00.317Z,10.80
2018-04-25T07:06:00.312Z,9.80
2018-04-25T07:07:00.315Z,10.10
2018-04-25T07:08:00.397Z,10.00
2018-04-25T07:09:00.312Z,10.00
2018-04-25T07:10:00.312Z,9.70
2018-04-25T07:11:00.307Z,9.60
2018-04-25T07:12:00.311Z,9.50
2018-04-25T07:13:00.312Z,10.00
2018-04-25T07:14:00.361Z,9.90
2018-04-25T07:15:00.309Z,9.70
2018-04-25T07:16:00.303Z,10.00
2018-04-25T07:17:00.304Z,9.70
2018-04-25T07:18:00.304Z,10.30
2018-04-25T07:19:00.301Z,10.00
2018-04-25T07:20:00.305Z,9.60
2018-04-25T07:21:00.301Z,11.40
2018-04-25T07:22:00.303Z,8.90
2018-04-25T07:23:00.303Z,8.80
2018-04-25T07:24:00.302Z,8.80
2018-04-25T07:25:00.300Z,9.00
2018-04-25T07:26:00.380Z,8.50
2018-04-25T07:27:00.295Z,8.40
2018-04-25T07:28:00.293Z,8.60
2018-04-25T07:29:00.300Z,8.10
2018-04-25T07:30:00.294Z,8.50
2018-04-25T07:31:00.291Z,8.20
2018-04-25T07:32:00.293Z,8.30
2018-04-25T07:33:00.291Z,7.60
2018-04-25T07:34:00.338Z,8.40
2018-04-25T07:35:00.290Z,7.90
2018-04-25T07:36:00.291Z,8.60
2018-04-25T07:37:00.291Z,7.70
2018-04-25T07:38:00.288Z,7.40
2018-04-25T07:39:00.288Z,7.40
2018-04-25T07:40:00.290Z,7.60
2018-04-25T07:41:00.290Z,8.00
2018-04-25T07:42:00.378Z,7.70
2018-04-25T07:43:00.284Z,7.70
2018-04-25T07:44:00.284Z,7.60
2018-04-25T07:45:00.286Z,8.50
2018-04-25T07:46:00.285Z,6.40
2018-04-25T07:47:00.279Z,6.40
2018-04-25T07:48:00.275Z,6.20
2018-04-25T07:49:00.282Z,6.00
2018-04-25T07:50:00.280Z,8.50
2018-04-25T07:51:00.277Z,7.80
2018-04-25T07:52:00.281Z,6.20
2018-04-25T07:53:00.274Z,6.20
2018-04-25T07:54:00.271Z,6.70
2018-04-25T07:55:00.276Z,6.70
2018-04-25T07:56:00.279Z,6.10
2018-04-25T07:57:00.283Z,6.40
2018-04-25T07:58:00.274Z,7.40
2018-04-25T07:59:00.271Z,6.60
2018-04-25T08:00:00.275Z,7.20
2018-04-25T08:01:00.349Z,6.30
2018-04-25T08:02:00.298Z,6.20
2018-04-25T08:03:00.292Z,5.90
2018-04-25T08:04:00.269Z,6.70
2018-04-25T08:05:00.270Z,5.90
2018-04-25T08:06:00.327Z,5.90
2018-04-25T08:07:00.269Z,7.30
2018-04-25T08:08:00.273Z,8.30
2018-04-25T08:09:00.269Z,6.70
2018-04-25T08:10:00.268Z,6.10
2018-04-25T08:11:00.267Z,6.70
2018-04-25T08:12:00.267Z,6.60
2018-04-25T08:13:00.268Z,5.70
2018-04-25T08:14:00.271Z,5.50
2018-04-25T08:15:00.267Z,5.80
2018-04-25T08:16:00.517Z,6.50
2018-04-25T08:17:00.301Z,5.30
2018-04-25T08:18:00.355Z,7.20
2018-04-25T08:19:00.367Z,7.30
2018-04-25T08:20:00.274Z,6.60
2018-04-25T08:21:00.270Z,6.30
2018-04-25T08:22:00.272Z,5.90
2018-04-25T08:23:00.271Z,5.20
2018-04-25T08:24:00.273Z,7.40
2018-04-25T08:25:00.273Z,6.50
2018-04-25T08:26:00.280Z,6.80
2018-04-25T08:27:00.365Z,5.80
2018-04-25T08:28:00.274Z,5.20
2018-04-25T08:29:00.614Z,6.50
2018-04-25T08:30:00.274Z,8.30
2018-04-25T08:31:00.281Z,5.70
2018-04-25T08:32:00.281Z,5.70
2018-04-25T08:33:00.281Z,5.50
2018-04-25T08:34:00.278Z,6.20
2018-04-25T08:35:00.651Z,8.70
2018-04-25T08:36:00.279Z,8.10
2018-04-25T08:37:00.285Z,5.30
2018-04-25T08:38:00.282Z,6.90
2018-04-25T08:39:00.282Z,5.70
2018-04-25T08:40:00.287Z,6.50
2018-04-25T08:41:00.285Z,6.00
2018-04-25T08:42:00.327Z,6.40
2018-04-25T08:43:00.286Z,7.60
2018-04-25T08:44:00.290Z,7.80
2018-04-25T08:45:00.314Z,5.30
2018-04-25T08:46:00.289Z,7.80
2018-04-25T08:47:00.292Z,6.90
2018-04-25T08:48:00.293Z,5.50
2018-04-25T08:49:00.379Z,6.70
2018-04-25T08:50:00.298Z,6.40
2018-04-25T08:51:00.294Z,8.00
2018-04-25T08:52:00.294Z,7.30
2018-04-25T08:53:00.298Z,5.80
2018-04-25T08:54:00.302Z,5.30
2018-04-25T08:55:00.296Z,6.00
2018-04-25T08:56:00.305Z,6.20
2018-04-25T08:57:00.308Z,6.60
2018-04-25T08:58:00.304Z,5.50
2018-04-25T08:59:00.304Z,8.20
2018-04-25T09:00:00.303Z,6.60
2018-04-25T09:01:00.309Z,7.70
2018-04-25T09:02:00.313Z,6.50
2018-04-25T09:03:00.313Z,6.20
2018-04-25T09:04:00.312Z,6.30
2018-04-25T09:05:00.313Z,5.90
2018-04-25T09:06:00.320Z,6.50
2018-04-25T09:07:00.323Z,5.60
2018-04-25T09:08:00.491Z,6.70
2018-04-25T09:09:00.801Z,6.10
2018-04-25T09:10:00.326Z,6.60
2018-04-25T09:11:00.321Z,5.40
2018-04-25T09:12:00.366Z,6.40
2018-04-25T09:13:00.332Z,6.50
2018-04-25T09:14:00.329Z,6.40
2018-04-25T09:15:00.332Z,5.90
2018-04-25T09:16:00.333Z,6.10
2018-04-25T09:17:00.334Z,8.50
2018-04-25T09:18:00.341Z,6.50
2018-04-25T09:19:00.341Z,6.80
2018-04-25T09:20:00.377Z,6.10
2018-04-25T09:21:00.350Z,6.10
2018-04-25T09:22:00.347Z,5.90
2018-04-25T09:23:00.350Z,7.90
2018-04-25T09:24:00.351Z,5.80
2018-04-25T09:25:00.353Z,5.90
2018-04-25T09:26:00.358Z,6.20
2018-04-25T09:27:00.356Z,6.30
2018-04-25T09:28:00.360Z,7.70
2018-04-25T09:29:00.360Z,6.00
2018-04-25T09:30:00.366Z,7.50
2018-04-25T09:31:00.371Z,8.60
2018-04-25T09:32:00.368Z,6.10
2018-04-25T09:33:00.445Z,6.90
2018-04-25T09:34:00.372Z,6.00
2018-04-25T09:35:00.378Z,7.60
2018-04-25T09:36:00.388Z,8.60
2018-04-25T09:37:00.378Z,9.10
2018-04-25T09:38:00.384Z,8.20
2018-04-25T09:39:00.391Z,7.70
2018-04-25T09:40:00.398Z,8.20
2018-04-25T09:41:00.410Z,8.30
2018-04-25T09:42:00.394Z,7.60
2018-04-25T09:43:00.389Z,7.80
2018-04-25T09:44:00.400Z,6.90
2018-04-25T09:45:00.399Z,7.80
2018-04-25T09:46:00.463Z,8.60
2018-04-25T09:47:00.762Z,8.20
2018-04-25T09:48:00.412Z,11.30
2018-04-25T09:49:00.603Z,6.70
2018-04-25T09:50:00.416Z,6.90
2018-04-25T09:51:00.430Z,11.20
2018-04-25T09:52:00.420Z,6.90
2018-04-25T09:53:00.423Z,7.20
2018-04-25T09:54:00.434Z,6.60
2018-04-25T09:55:00.427Z,7.40
2018-04-25T09:56:00.431Z,8.50
2018-04-25T09:57:00.433Z,9.20
2018-04-25T09:58:00.600Z,8.50
2018-04-25T09:59:00.442Z,7.80
2018-04-25T10:00:00.440Z,8.40
2018-04-25T10:01:00.447Z,6.80
2018-04-25T10:02:00.447Z,10.50
2018-04-25T10:03:00.450Z,8.30
2018-04-25T10:04:00.523Z,8.00
2018-04-25T10:05:00.457Z,8.30
2018-04-25T10:06:00.462Z,8.90
2018-04-25T10:07:00.461Z,7.50
2018-04-25T10:08:00.466Z,9.90
2018-04-25T10:09:00.474Z,8.60
2018-04-25T10:10:00.474Z,7.70
2018-04-25T10:11:00.481Z,7.50
2018-04-25T10:12:00.482Z,6.10
2018-04-25T10:13:00.479Z,7.10
2018-04-25T10:14:00.758Z,7.40
2018-04-25T10:15:00.484Z,7.00
2018-04-25T10:16:00.492Z,8.20
2018-04-25T10:17:00.509Z,5.50
2018-04-25T10:18:00.505Z,7.10
2018-04-25T10:19:00.504Z,7.60
2018-04-25T10:20:00.501Z,8.90
2018-04-25T10:21:00.533Z,7.50
2018-04-25T10:22:00.507Z,5.90
2018-04-25T10:23:01.046Z,8.40
2018-04-25T10:24:00.539Z,6.60
2018-04-25T10:25:00.517Z,7.20
2018-04-25T10:26:00.520Z,8.30
2018-04-25T10:27:00.522Z,7.60
2018-04-25T10:28:00.529Z,5.30
2018-04-25T10:29:00.528Z,7.00
2018-04-25T10:30:00.532Z,6.20
2018-04-25T10:31:00.557Z,7.80
2018-04-25T10:32:00.614Z,5.70
2018-04-25T10:33:00.673Z,7.20
2018-04-25T10:34:00.543Z,6.10
2018-04-25T10:35:00.545Z,6.00
2018-04-25T10:36:00.562Z,7.00
2018-04-25T10:37:00.554Z,9.30
2018-04-25T10:38:00.555Z,10.20
2018-04-25T10:39:00.656Z,7.30
2018-04-25T10:40:00.558Z,5.90
2018-04-25T10:41:00.569Z,8.20
2018-04-25T10:42:00.566Z,7.30
2018-04-25T10:43:00.837Z,7.40
2018-04-25T10:44:00.568Z,8.70
2018-04-25T10:45:00.575Z,7.60
2018-04-25T10:46:00.573Z,7.40
2018-04-25T10:47:00.576Z,7.80
2018-04-25T10:48:00.577Z,9.20
2018-04-25T10:49:00.582Z,7.30
2018-04-25T10:50:00.581Z,7.90
2018-04-25T10:51:00.583Z,9.80
2018-04-25T10:52:00.585Z,7.00
2018-04-25T10:53:00.596Z,7.40
2018-04-25T10:54:00.589Z,6.80
2018-04-25T10:55:00.589Z,10.40
2018-04-25T10:56:00.594Z,7.80
2018-04-25T10:57:00.593Z,8.30
2018-04-25T10:58:00.596Z,8.00
2018-04-25T10:59:00.611Z,9.30
2018-04-25T11:00:00.599Z,8.00
2018-04-25T11:01:00.602Z,8.60
2018-04-25T11:02:00.603Z,13.50
2018-04-25T11:03:00.606Z,10.80
2018-04-25T11:04:00.604Z,13.20
2018-04-25T11:05:00.607Z,17.20
2018-04-25T11:06:00.608Z,15.70
2018-04-25T11:07:00.610Z,13.80
2018-04-25T11:08:00.610Z,11.20
2018-04-25T11:09:00.612Z,14.90
2018-04-25T11:10:00.616Z,9.70
2018-04-25T11:11:00.613Z,11.30
2018-04-25T11:12:00.614Z,8.60
2018-04-25T11:13:00.616Z,8.50
2018-04-25T11:14:00.616Z,8.10
2018-04-25T11:15:00.615Z,7.40
2018-04-25T11:16:00.619Z,8.70
2018-04-25T11:17:00.622Z,7.60
2018-04-25T11:18:00.620Z,6.60
2018-04-25T11:19:00.620Z,6.60
2018-04-25T11:20:00.625Z,6.30
2018-04-25T11:21:00.619Z,5.90
2018-04-25T11:22:00.623Z,6.30
2018-04-25T11:23:00.627Z,5.40
2018-04-25T11:24:00.632Z,6.20
2018-04-25T11:25:00.690Z,5.30
2018-04-25T11:26:00.625Z,5.20
2018-04-25T11:27:00.626Z,4.80
2018-04-25T11:28:00.626Z,5.30
2018-04-25T11:29:00.631Z,5.90
2018-04-25T11:30:00.628Z,5.10
2018-04-25T11:31:00.625Z,4.80
2018-04-25T11:32:00.657Z,4.60
2018-04-25T11:33:00.629Z,4.60
2018-04-25T11:34:00.630Z,5.30
2018-04-25T11:35:00.633Z,5.30
2018-04-25T11:36:00.626Z,4.70
2018-04-25T11:37:00.635Z,4.20
2018-04-25T11:38:00.709Z,5.10
2018-04-25T11:39:00.636Z,4.70
2018-04-25T11:40:00.638Z,5.20
2018-04-25T11:41:00.634Z,4.90
2018-04-25T11:42:00.636Z,5.40
2018-04-25T11:43:00.633Z,4.60
2018-04-25T11:44:00.678Z,4.60
2018-04-25T11:45:00.635Z,4.70
2018-04-25T11:46:00.639Z,4.90
2018-04-25T11:47:00.636Z,4.80
2018-04-25T11:48:00.637Z,4.90
2018-04-25T11:49:00.637Z,4.80
2018-04-25T11:50:00.638Z,4.60
2018-04-25T11:51:00.638Z,4.20
2018-04-25T11:52:00.638Z,4.30
2018-04-25T11:53:00.645Z,4.20
2018-04-25T11:54:00.645Z,5.10
2018-04-25T11:55:00.647Z,4.40
2018-04-25T11:56:00.644Z,4.20
2018-04-25T11:57:00.653Z,4.30
2018-04-25T11:58:00.647Z,4.50
2018-04-25T11:59:00.645Z,4.70
2018-04-25T12:00:00.645Z,4.30
2018-04-25T12:01:00.650Z,4.10
2018-04-25T12:02:00.646Z,4.20
2018-04-25T12:03:00.647Z,4.30
2018-04-25T12:04:00.645Z,5.50
2018-04-25T12:05:00.704Z,3.80
2018-04-25T12:06:00.655Z,4.60
2018-04-25T12:07:00.652Z,4.50
2018-04-25T12:08:00.650Z,4.50
2018-04-25T12:09:00.646Z,4.10
2018-04-25T12:10:00.650Z,3.70
2018-04-25T12:11:00.652Z,3.50
2018-04-25T12:12:00.653Z,4.10
2018-04-25T12:13:00.656Z,4.20
2018-04-25T12:14:00.665Z,4.30
2018-04-25T12:15:00.659Z,4.00
2018-04-25T12:16:00.656Z,3.90
2018-04-25T12:17:00.658Z,4.70
2018-04-25T12:18:00.657Z,4.10
2018-04-25T12:19:00.664Z,4.00
2018-04-25T12:20:00.655Z,4.10
2018-04-25T12:21:00.667Z,3.90
2018-04-25T12:22:00.662Z,4.00
2018-04-25T12:23:00.664Z,4.20
2018-04-25T12:24:00.663Z,4.60
2018-04-25T12:25:00.665Z,4.30
2018-04-25T12:26:00.668Z,4.70
2018-04-25T12:27:00.667Z,4.60
2018-04-25T12:28:00.672Z,6.00
2018-04-25T12:29:00.669Z,4.50
2018-04-25T12:30:00.671Z,4.50
2018-04-25T12:31:00.673Z,5.00
2018-04-25T12:32:00.677Z,5.20
2018-04-25T12:33:00.676Z,5.50
2018-04-25T12:34:00.678Z,5.00
2018-04-25T12:35:00.676Z,4.10
2018-04-25T12:36:00.676Z,4.20
2018-04-25T12:37:00.708Z,4.20
2018-04-25T12:38:00.682Z,3.70
2018-04-25T12:39:00.678Z,3.50
2018-04-25T12:40:00.680Z,3.40
2018-04-25T12:41:00.680Z,3.60
2018-04-25T12:42:00.683Z,2.70
2018-04-25T12:43:00.685Z,2.70
2018-04-25T12:44:00.687Z,3.00
2018-04-25T12:45:00.684Z,2.80
2018-04-25T12:46:00.685Z,2.60
2018-04-25T12:47:00.694Z,2.70
2018-04-25T12:48:00.691Z,3.00
2018-04-25T12:49:00.692Z,2.70
2018-04-25T12:50:00.690Z,2.80
2018-04-25T12:51:00.689Z,3.10
2018-04-25T12:52:00.693Z,4.00
2018-04-25T12:53:00.692Z,5.00
2018-04-25T12:54:00.901Z,3.20
2018-04-25T12:55:00.706Z,4.40
2018-04-25T12:56:00.692Z,4.50
2018-04-25T12:57:00.693Z,2.50
2018-04-25T12:58:00.696Z,4.60
2018-04-25T12:59:00.743Z,3.60
2018-04-25T13:00:00.697Z,3.70
2018-04-25T13:01:00.699Z,2.40
2018-04-25T13:02:00.700Z,4.40
2018-04-25T13:03:00.703Z,3.70
2018-04-25T13:04:00.700Z,3.20
2018-04-25T13:05:00.702Z,3.00
2018-04-25T13:06:00.704Z,2.50
2018-04-25T13:07:00.709Z,4.70
2018-04-25T13:08:00.708Z,4.00
2018-04-25T13:09:00.784Z,6.40
2018-04-25T13:10:00.712Z,4.80
2018-04-25T13:11:00.709Z,5.10
2018-04-25T13:12:00.709Z,4.50
2018-04-25T13:13:00.710Z,4.50
2018-04-25T13:14:00.709Z,3.10
2018-04-25T13:15:00.739Z,5.60
2018-04-25T13:16:00.711Z,4.00
2018-04-25T13:17:00.714Z,7.90
2018-04-25T13:18:00.717Z,7.50
2018-04-25T13:19:00.718Z,11.10
2018-04-25T13:20:00.725Z,6.20
2018-04-25T13:21:00.718Z,6.50
2018-04-25T13:22:00.722Z,8.80
2018-04-25T13:23:00.745Z,8.20
2018-04-25T13:24:00.789Z,9.50
2018-04-25T13:25:00.729Z,9.40